Time;durP1;ratioP1;P1;durP2;ratioP2;P2;SDS_P1;SDS_P2;PMS_P1;PMS_P2;Temp;Humidity;BMP_temperature;BMP_pressure;BME280_temperature;BME280_humidity;BME280_pressure;Samples;Min_cycle;Max_cycle;Signal;HPM_P1;HPM_P2
2021/04/27 00:00:56;;;;;;;9.50;4.13;;;;;;;20.05;45.79;100815.94;2072401;28;20046;-61
2021/04/27 00:01:57;;;;;;;8.10;3.75;;;;;;;20.07;45.93;100815.75;2072616;28;20034;-61
2021/04/27 00:02:57;;;;;;;6.50;3.78;;;;;;;20.06;45.75;100811.34;2072412;28;20381;-61
2021/04/27 00:03:58;;;;;;;8.50;4.40;;;;;;;20.05;46.05;100810.50;2072558;28;20037;-61
2021/04/27 00:04:58;;;;;;;7.80;3.50;;;;;;;20.05;46.19;100809.66;2072378;28;20389;-62
2021/04/27 00:05:59;;;;;;;8.10;3.83;;;;;;;20.04;46.00;100808.81;2072416;28;20105;-63
2021/04/27 00:06:59;;;;;;;7.40;4.28;;;;;;;20.05;46.29;100806.94;2071484;28;20088;-62
2021/04/27 00:08:01;;;;;;;10.23;3.78;;;;;;;20.04;45.68;100810.69;2072468;28;20028;-62
2021/04/27 00:09:01;;;;;;;9.55;4.28;;;;;;;20.04;45.84;100808.00;2072266;28;20072;-62
2021/04/27 00:10:06;;;;;;;9.98;3.60;;;;;;;20.05;45.78;100805.06;2072438;28;20088;-62
2021/04/27 00:11:08;;;;;;;7.68;3.60;;;;;;;20.05;45.65;100809.66;2072534;28;20026;-62
2021/04/27 00:12:09;;;;;;;9.88;3.75;;;;;;;20.05;45.93;100806.94;2072190;28;20057;-62
2021/04/27 00:13:09;;;;;;;7.95;4.15;;;;;;;20.06;46.04;100803.19;2072479;28;20038;-62
2021/04/27 00:14:10;;;;;;;7.32;3.60;;;;;;;20.05;46.38;100802.34;2071682;28;20089;-62
2021/04/27 00:15:14;;;;;;;9.20;4.10;;;;;;;20.05;46.62;100805.06;2072689;28;20109;-62
2021/04/27 00:16:15;;;;;;;7.80;3.70;;;;;;;20.04;46.29;100800.66;2072122;28;20030;-62
2021/04/27 00:17:15;;;;;;;7.65;3.70;;;;;;;20.07;47.46;100802.16;2072643;28;20425;-62
2021/04/27 00:18:16;;;;;;;9.65;3.88;;;;;;;20.07;46.79;100794.00;2072211;28;20065;-62
2021/04/27 00:19:16;;;;;;;7.30;3.60;;;;;;;20.07;47.21;100802.16;2072602;28;20038;-62
2021/04/27 00:20:23;;;;;;;8.05;4.07;;;;;;;20.08;46.50;100801.97;2072165;28;20378;-62
2021/04/27 00:21:24;;;;;;;5.72;3.30;;;;;;;20.08;46.60;100790.25;2071774;28;20025;-62
2021/04/27 00:22:25;;;;;;;9.90;3.72;;;;;;;20.07;46.56;100800.28;2072294;28;20041;-62
2021/04/27 00:23:25;;;;;;;8.55;3.85;;;;;;;20.06;46.68;100792.31;2072509;28;20022;-62
2021/04/27 00:24:30;;;;;;;9.75;3.90;;;;;;;20.07;47.06;100791.28;2072121;28;20676;-61
2021/04/27 00:25:31;;;;;;;9.63;3.78;;;;;;;20.05;46.45;100794.19;2073424;28;20049;-61
2021/04/27 00:26:32;;;;;;;6.25;3.75;;;;;;;20.05;46.04;100791.47;2073858;28;20036;-62
2021/04/27 00:27:32;;;;;;;12.63;4.30;;;;;;;20.06;46.21;100784.16;2074122;28;20381;-62
2021/04/27 00:28:33;;;;;;;8.65;4.00;;;;;;;20.03;46.74;100788.13;2073363;28;20033;-62
2021/04/27 00:29:33;;;;;;;7.88;4.05;;;;;;;20.05;46.00;100786.06;2074271;28;20462;-62
2021/04/27 00:30:34;;;;;;;8.05;4.13;;;;;;;20.05;46.02;100777.06;2073939;28;20030;-62
2021/04/27 00:31:35;;;;;;;6.88;4.20;;;;;;;20.04;45.97;100778.09;2074174;28;20129;-62
2021/04/27 00:32:35;;;;;;;8.50;3.97;;;;;;;20.04;46.08;100776.22;2073916;28;20042;-62
2021/04/27 00:33:36;;;;;;;8.38;3.65;;;;;;;20.03;46.01;100773.69;2074134;28;20033;-61
2021/04/27 00:34:37;;;;;;;8.15;4.20;;;;;;;20.05;46.25;100775.19;2074070;28;20034;-62
2021/04/27 00:35:37;;;;;;;6.60;4.25;;;;;;;20.06;45.67;100776.84;2074032;28;20029;-61
2021/04/27 00:36:38;;;;;;;8.60;4.00;;;;;;;20.06;45.67;100771.44;2073060;28;20470;-62
2021/04/27 00:37:39;;;;;;;10.52;4.47;;;;;;;20.06;45.67;100773.31;2073997;28;20042;-62
2021/04/27 00:38:39;;;;;;;8.43;4.03;;;;;;;20.06;45.79;100773.31;2073252;28;20071;-62
2021/04/27 00:39:40;;;;;;;8.00;4.45;;;;;;;20.06;45.73;100770.59;2073492;28;20026;-62
2021/04/27 00:40:40;;;;;;;7.00;3.60;;;;;;;20.04;45.75;100772.66;2073223;28;20042;-62
2021/04/27 00:41:41;;;;;;;8.82;3.75;;;;;;;20.04;47.17;100762.63;2073326;28;20033;-62
2021/04/27 00:42:45;;;;;;;9.23;3.97;;;;;;;20.04;45.77;100768.06;2073964;28;20103;-62
2021/04/27 00:43:46;;;;;;;8.93;4.40;;;;;;;20.03;45.62;100766.38;2073578;28;20042;-62
2021/04/27 00:44:46;;;;;;;7.38;4.22;;;;;;;20.03;45.74;100762.84;2072960;28;20128;-62
2021/04/27 00:45:47;;;;;;;11.57;4.90;;;;;;;20.01;45.79;100763.03;2073355;28;20716;-62
2021/04/27 00:46:48;;;;;;;9.82;3.83;;;;;;;20.02;45.79;100759.28;2073813;28;20084;-61
2021/04/27 00:47:49;;;;;;;8.30;3.65;;;;;;;20.01;45.91;100760.31;2074047;28;20638;-61
2021/04/27 00:48:49;;;;;;;9.52;4.00;;;;;;;20.03;45.90;100754.69;2073768;28;20121;-62
2021/04/27 00:49:52;;;;;;;8.18;4.38;;;;;;;20.02;45.78;100753.00;2073900;28;20076;-62
2021/04/27 00:50:53;;;;;;;8.40;4.07;;;;;;;20.01;45.77;100751.31;2072591;28;20493;-61
2021/04/27 00:51:54;;;;;;;8.70;4.18;;;;;;;20.01;45.76;100754.03;2073076;28;20045;-61
2021/04/27 00:52:55;;;;;;;8.13;3.92;;;;;;;20.00;46.97;100752.34;2073087;28;20125;-62
2021/04/27 00:53:55;;;;;;;8.10;4.25;;;;;;;20.00;46.10;100747.75;2073240;28;20624;-62
2021/04/27 00:54:56;;;;;;;7.55;4.00;;;;;;;20.01;45.95;100749.44;2073805;28;20033;-62
2021/04/27 00:55:57;;;;;;;8.23;3.75;;;;;;;20.02;45.83;100747.56;2070131;28;20034;-62
2021/04/27 00:56:57;;;;;;;11.27;3.97;;;;;;;20.01;45.78;100744.00;2064999;28;20133;-62
2021/04/27 00:57:59;;;;;;;8.50;3.63;;;;;;;20.03;45.60;100743.81;2072424;28;20022;-62
2021/04/27 00:59:01;;;;;;;8.95;3.72;;;;;;;20.05;46.16;100736.31;2089062;28;20500;-62
2021/04/27 01:00:03;;;;;;;10.45;4.25;;;;;;;20.10;46.25;100742.81;2081348;28;20028;-62
2021/04/27 01:01:04;;;;;;;12.13;4.13;;;;;;;20.10;45.86;100741.97;2064860;28;20117;-62
2021/04/27 01:02:05;;;;;;;16.10;4.07;;;;;;;20.09;45.81;100737.56;2071377;28;20034;-62
2021/04/27 01:03:07;;;;;;;20.55;4.30;;;;;;;20.09;45.81;100740.28;2073929;28;20092;-62
2021/04/27 01:04:07;;;;;;;12.65;4.47;;;;;;;20.07;46.43;100737.78;2072915;28;20022;-62
2021/04/27 01:05:11;;;;;;;10.35;3.95;;;;;;;20.09;45.84;100735.69;2065212;28;20073;-62
2021/04/27 01:06:12;;;;;;;13.77;3.95;;;;;;;20.08;45.87;100735.91;2064420;28;20421;-62
2021/04/27 01:07:16;;;;;;;14.80;4.18;;;;;;;20.07;45.89;100732.34;2065002;28;20022;-62
2021/04/27 01:08:34;;;;;;;8.25;4.05;;;;;;;20.03;46.39;100724.78;2069630;28;20506;-62
2021/04/27 01:09:58;;;;;;;10.38;4.32;;;;;;;20.02;46.32;100720.38;2073157;28;20045;-62
2021/04/27 01:11:09;;;;;;;8.65;3.83;;;;;;;19.99;46.58;100724.34;2072817;28;20111;-62
2021/04/27 01:12:22;;;;;;;;;;;;;;;19.97;46.91;100721.00;2066685;28;20101;-62
2021/04/27 01:13:37;;;;;;;20.35;3.90;;;;;;;19.96;46.20;100719.31;2066168;28;19933;-62
2021/04/27 01:14:45;;;;;;;9.25;4.10;;;;;;;19.95;46.40;100728.50;2064875;28;20060;-62
2021/04/27 01:15:49;;;;;;;8.27;3.45;;;;;;;19.95;46.83;100716.78;2065375;28;20544;-62
2021/04/27 01:16:55;;;;;;;7.43;3.65;;;;;;;19.95;46.81;100722.22;2071521;28;20547;-62
2021/04/27 01:18:02;;;;;;;7.43;3.40;;;;;;;19.94;46.84;100720.53;2073087;28;20041;-62
2021/04/27 01:19:08;;;;;;;7.82;3.70;;;;;;;19.93;46.55;100719.72;2073065;28;20042;-62
2021/04/27 01:20:46;;;;;;;9.88;3.75;;;;;;;19.93;47.53;100725.13;2072656;28;20176;-62
2021/04/27 01:21:59;;;;;;;7.30;3.90;;;;;;;19.92;46.89;100711.78;2073432;28;20088;-62
2021/04/27 01:23:18;;;;;;;6.97;3.45;;;;;;;19.91;47.42;100713.66;2069858;28;20031;-62
2021/04/27 01:24:33;;;;;;;7.93;3.83;;;;;;;19.92;47.26;100714.50;2065491;28;20026;-62
2021/04/27 01:25:43;;;;;;;7.70;3.75;;;;;;;19.92;47.78;100714.50;2073721;28;20593;-62
2021/04/27 01:26:49;;;;;;;;;;;;;;;19.89;46.79;100713.03;2074188;28;20021;-62
2021/04/27 01:27:50;;;;;;;6.10;3.30;;;;;;;19.88;47.24;100711.34;2067453;28;19925;-62
2021/04/27 01:28:51;;;;;;;9.48;3.75;;;;;;;19.89;47.18;100712.19;2072769;28;20061;-62
2021/04/27 01:29:52;;;;;;;8.40;3.83;;;;;;;19.89;47.25;100709.47;2064960;28;20033;-62
2021/04/27 01:30:53;;;;;;;5.57;3.20;;;;;;;19.88;47.32;100705.91;2072678;28;20042;-62
2021/04/27 01:31:57;;;;;;;9.18;3.92;;;;;;;19.87;46.99;100704.22;2067594;28;20501;-62
2021/04/27 01:32:58;;;;;;;10.23;3.75;;;;;;;19.88;47.15;100707.78;2072796;28;20101;-62
2021/04/27 01:34:00;;;;;;;8.35;3.70;;;;;;;19.88;46.88;100707.78;2072880;28;20038;-62
2021/04/27 01:35:01;;;;;;;7.53;4.07;;;;;;;19.88;47.27;100703.19;2072590;28;20426;-62
2021/04/27 01:36:23;;;;;;;8.60;3.60;;;;;;;19.88;47.23;100703.19;2077505;28;20823;-62
2021/04/27 01:37:30;;;;;;;8.25;3.75;;;;;;;19.89;47.21;100706.75;2080275;28;20049;-62
2021/04/27 01:38:31;;;;;;;7.70;3.75;;;;;;;19.89;47.23;100704.03;2072790;28;20068;-61
2021/04/27 01:39:33;;;;;;;7.32;3.70;;;;;;;19.88;47.04;100705.06;2073045;28;20036;-62
2021/04/27 01:40:33;;;;;;;7.38;3.80;;;;;;;19.87;47.29;100704.22;2072717;28;20065;-62
2021/04/27 01:41:35;;;;;;;8.57;3.72;;;;;;;19.88;47.24;100705.91;2080032;28;20026;-62
2021/04/27 01:42:36;;;;;;;7.10;3.63;;;;;;;19.89;47.10;100704.88;2080240;28;20021;-62
2021/04/27 01:43:37;;;;;;;10.63;4.00;;;;;;;19.89;47.41;100707.59;2068592;28;20034;-62
2021/04/27 01:44:39;;;;;;;7.95;3.75;;;;;;;19.88;47.42;100705.91;2072574;28;20104;-62
2021/04/27 01:45:40;;;;;;;9.82;3.20;;;;;;;19.89;46.90;100704.03;2080780;28;20072;-62
2021/04/27 01:46:42;;;;;;;6.90;3.72;;;;;;;19.89;47.03;100704.88;2066650;28;20244;-62
2021/04/27 01:47:43;;;;;;;6.10;3.35;;;;;;;19.90;46.98;100700.28;2064685;28;20552;-62
2021/04/27 01:48:44;;;;;;;7.63;3.78;;;;;;;19.89;47.33;100699.44;2072799;28;20030;-62
2021/04/27 01:49:47;;;;;;;8.80;3.58;;;;;;;19.90;46.91;100703.00;2072773;28;20693;-62
2021/04/27 01:51:09;;;;;;;8.90;4.00;;;;;;;19.89;47.73;100701.31;2072948;28;20030;-62
2021/04/27 01:52:28;;;;;;;9.70;3.80;;;;;;;19.88;47.21;100702.34;2073397;28;20057;-62
2021/04/27 01:53:33;;;;;;;12.05;3.80;;;;;;;19.87;47.21;100697.97;2072834;28;20030;-62
2021/04/27 01:54:35;;;;;;;7.22;3.55;;;;;;;19.85;47.30;100701.72;2064591;28;20034;-62
2021/04/27 01:55:36;;;;;;;7.80;4.28;;;;;;;19.84;47.15;100697.31;2073008;28;20036;-63
2021/04/27 01:56:36;;;;;;;7.57;3.72;;;;;;;19.83;47.20;100695.66;2073301;28;20552;-62
2021/04/27 01:57:38;;;;;;;7.85;3.90;;;;;;;19.83;47.19;100695.66;2072117;28;20535;-62
2021/04/27 01:58:39;;;;;;;8.27;3.92;;;;;;;19.84;47.08;100691.06;2072586;28;20117;-62
2021/04/27 01:59:39;;;;;;;6.47;3.30;;;;;;;19.84;47.16;100691.88;2072762;28;20029;-63
2021/04/27 02:00:45;;;;;;;7.05;3.80;;;;;;;19.84;47.31;100694.59;2072500;28;20120;-62
2021/04/27 02:01:47;;;;;;;6.13;3.17;;;;;;;19.85;47.38;100692.72;2060275;28;20101;-62
2021/04/27 02:02:48;;;;;;;7.90;3.63;;;;;;;19.85;47.38;100690.84;2056509;28;20499;-62
2021/04/27 02:04:26;;;;;;;6.90;3.60;;;;;;;19.83;46.96;100686.66;2053744;28;20053;-62
2021/04/27 02:05:58;;;;;;;6.65;3.63;;;;;;;19.80;47.37;100679.75;2048135;29;20047;-62
2021/04/27 02:07:01;;;;;;;7.97;4.00;;;;;;;19.80;47.08;100676.19;2056200;28;20034;-62
2021/04/27 02:08:02;;;;;;;7.55;4.18;;;;;;;19.79;47.36;100674.50;2074889;28;20034;-62
2021/04/27 02:09:10;;;;;;;5.80;3.42;;;;;;;19.78;46.68;100681.81;2080334;28;20036;-62
2021/04/27 02:10:12;;;;;;;6.88;3.60;;;;;;;19.78;46.76;100676.38;2072689;28;20117;-62
2021/04/27 02:11:13;;;;;;;8.80;3.72;;;;;;;19.79;47.48;100671.78;2073263;28;20477;-62
2021/04/27 02:12:15;;;;;;;8.98;3.75;;;;;;;19.79;47.27;100674.50;2071984;28;20033;-62
2021/04/27 02:13:19;;;;;;;7.22;3.65;;;;;;;19.78;47.46;100670.94;2060158;28;20027;-62
2021/04/27 02:14:40;;;;;;;7.50;3.50;;;;;;;19.75;46.60;100665.09;2067193;28;20489;-63
2021/04/27 02:15:42;;;;;;;6.72;3.75;;;;;;;19.76;47.22;100672.19;2073394;28;20049;-62
2021/04/27 02:17:17;;;;;;;7.10;3.42;;;;;;;19.77;47.20;100668.44;2072453;28;20038;-62
2021/04/27 02:18:27;;;;;;;7.38;3.78;;;;;;;19.76;46.86;100658.59;2068738;28;20049;-62
2021/04/27 02:19:30;;;;;;;7.60;3.85;;;;;;;19.75;47.14;100660.47;2072193;28;20139;-62
2021/04/27 02:20:53;;;;;;;6.72;3.60;;;;;;;19.73;46.74;100659.84;2071403;28;20048;-62
2021/04/27 02:22:26;;;;;;;7.90;3.65;;;;;;;19.72;47.03;100650.03;2047813;29;20050;-63
2021/04/27 02:23:44;;;;;;;5.85;3.50;;;;;;;19.71;47.20;100659.22;2046223;28;20036;-62
2021/04/27 02:24:51;;;;;;;7.38;3.70;;;;;;;19.70;46.95;100662.97;2064245;28;20034;-62
2021/04/27 02:25:53;;;;;;;6.70;3.45;;;;;;;19.71;47.27;100658.38;2071297;28;20026;-62
2021/04/27 02:26:54;;;;;;;6.47;3.35;;;;;;;19.71;47.21;100661.09;2063887;28;20146;-62
2021/04/27 02:28:00;;;;;;;7.32;3.70;;;;;;;19.72;47.09;100657.31;2064931;28;20088;-62
2021/04/27 02:29:05;;;;;;;8.13;4.15;;;;;;;19.72;46.73;100655.44;2064334;28;20023;-62
2021/04/27 02:30:08;;;;;;;6.40;3.63;;;;;;;19.72;47.17;100654.59;2080880;28;20029;-62
2021/04/27 02:31:09;;;;;;;7.30;3.78;;;;;;;19.71;47.15;100647.50;2088623;28;20051;-62
2021/04/27 02:32:10;;;;;;;6.38;3.58;;;;;;;19.71;47.09;100653.78;2072274;28;20038;-62
2021/04/27 02:33:16;;;;;;;8.43;3.67;;;;;;;19.72;47.21;100651.91;2072746;28;20037;-62
2021/04/27 02:34:22;;;;;;;7.88;3.63;;;;;;;19.72;47.18;100655.44;2071830;28;20030;-62
2021/04/27 02:35:24;;;;;;;8.35;3.80;;;;;;;19.73;47.28;100659.00;2072771;28;20033;-62
2021/04/27 02:36:27;;;;;;;8.70;3.80;;;;;;;19.72;47.30;100650.03;2072766;28;20025;-62
2021/04/27 02:37:51;;;;;;;8.55;3.63;;;;;;;19.71;47.24;100644.78;2063607;28;20072;-62
2021/04/27 02:39:10;;;;;;;7.80;3.80;;;;;;;19.70;47.21;100651.28;2072475;28;20058;-62
2021/04/27 02:40:13;;;;;;;7.07;3.63;;;;;;;19.71;46.67;100645.63;2072422;28;20037;-63
2021/04/27 02:41:14;;;;;;;10.07;3.70;;;;;;;19.71;47.39;100647.50;2072150;28;20509;-63
2021/04/27 02:42:15;;;;;;;8.13;3.35;;;;;;;19.72;47.24;100647.31;2070016;28;20030;-63
2021/04/27 02:43:28;;;;;;;7.00;3.67;;;;;;;19.72;47.05;100649.19;2069838;28;20101;-62
2021/04/27 02:44:29;;;;;;;8.88;3.53;;;;;;;19.71;47.12;100644.78;2085040;28;20032;-62
2021/04/27 02:45:31;;;;;;;6.78;3.55;;;;;;;19.71;47.60;100639.34;2080569;28;20038;-62
2021/04/27 02:47:04;;;;;;;7.93;3.63;;;;;;;19.71;47.64;100640.19;2072553;28;20496;-62
2021/04/27 02:48:08;;;;;;;9.18;3.60;;;;;;;19.71;47.68;100639.34;2071572;28;20026;-62
2021/04/27 02:49:11;;;;;;;7.05;3.58;;;;;;;19.70;47.84;100633.09;2072484;28;20156;-63
2021/04/27 02:50:17;;;;;;;8.13;3.63;;;;;;;19.71;47.72;100633.94;2071983;28;20028;-63
2021/04/27 02:51:18;;;;;;;7.68;3.30;;;;;;;19.70;48.14;100629.56;2080267;28;20416;-62
2021/04/27 02:52:31;;;;;;;7.68;3.55;;;;;;;19.71;48.27;100631.22;2080791;28;20055;-62
2021/04/27 02:53:36;;;;;;;8.88;3.55;;;;;;;19.70;48.35;100626.84;2073179;28;20684;-63
2021/04/27 02:54:36;;;;;;;7.82;3.55;;;;;;;19.70;48.03;100627.66;2072047;28;20022;-62
2021/04/27 02:55:38;;;;;;;7.25;3.63;;;;;;;19.71;48.20;100628.50;2064265;28;20089;-62
2021/04/27 02:56:39;;;;;;;6.22;3.67;;;;;;;19.70;47.84;100624.13;2071231;28;20070;-62
2021/04/27 02:57:40;;;;;;;5.65;3.75;;;;;;;19.69;47.88;100620.56;2064334;28;20022;-63
2021/04/27 02:58:42;;;;;;;6.00;3.70;;;;;;;19.71;47.80;100623.06;2063918;28;20129;-62
2021/04/27 02:59:42;;;;;;;9.30;3.63;;;;;;;19.70;48.10;100624.94;2072526;28;20033;-62
2021/04/27 03:00:45;;;;;;;4.82;3.17;;;;;;;19.70;48.42;100619.50;2072805;28;20123;-62
2021/04/27 03:01:45;;;;;;;9.73;3.95;;;;;;;19.69;47.91;100623.28;2072992;28;20335;-62
2021/04/27 03:02:49;;;;;;;6.95;4.05;;;;;;;19.70;47.91;100624.13;2072668;28;20476;-62
2021/04/27 03:03:50;;;;;;;7.15;3.58;;;;;;;19.71;47.98;100615.75;2072931;28;20030;-62
2021/04/27 03:04:52;;;;;;;7.20;3.70;;;;;;;19.70;48.02;100616.78;2071676;28;20033;-62
2021/04/27 03:06:06;;;;;;;8.18;3.90;;;;;;;19.70;47.89;100624.94;2065497;28;20022;-62
2021/04/27 03:07:12;;;;;;;7.57;4.05;;;;;;;19.69;48.02;100614.31;2062388;28;20101;-62
2021/04/27 03:08:20;;;;;;;8.07;4.15;;;;;;;19.70;47.89;100618.69;2057102;28;20027;-62
2021/04/27 03:09:20;;;;;;;7.55;4.20;;;;;;;19.70;48.08;100619.50;2064254;28;20026;-62
2021/04/27 03:10:22;;;;;;;6.82;3.40;;;;;;;19.71;48.09;100614.91;2072780;28;20037;-62
2021/04/27 03:11:23;;;;;;;7.68;3.80;;;;;;;19.71;47.79;100621.19;2072355;28;20030;-62
2021/04/27 03:12:23;;;;;;;7.57;4.00;;;;;;;19.71;47.90;100618.47;2072043;28;20072;-62
2021/04/27 03:13:24;;;;;;;6.60;3.63;;;;;;;19.70;48.05;100608.66;2072176;28;20507;-62
2021/04/27 03:14:26;;;;;;;6.80;3.53;;;;;;;19.69;47.93;100612.44;2072065;28;20445;-62
2021/04/27 03:15:29;;;;;;;6.95;3.95;;;;;;;19.70;47.89;100611.38;2072182;28;20126;-62
2021/04/27 03:16:29;;;;;;;6.13;3.33;;;;;;;19.70;48.08;100605.13;2063965;28;20062;-62
2021/04/27 03:17:30;;;;;;;6.63;3.75;;;;;;;19.70;48.01;100607.84;2066106;28;20038;-62
2021/04/27 03:18:32;;;;;;;10.02;3.58;;;;;;;19.68;48.15;100605.31;2072554;28;20389;-62
2021/04/27 03:19:34;;;;;;;7.70;3.70;;;;;;;19.68;48.15;100607.19;2071581;28;20556;-62
2021/04/27 03:20:46;;;;;;;7.65;3.90;;;;;;;19.69;48.00;100608.88;2065172;28;20512;-62
2021/04/27 03:22:05;;;;;;;6.05;3.67;;;;;;;19.68;47.95;100607.19;2063796;28;20065;-62
2021/04/27 03:23:05;;;;;;;10.13;3.78;;;;;;;19.67;48.19;100606.34;2069154;28;20061;-62
2021/04/27 03:24:06;;;;;;;8.63;3.80;;;;;;;19.67;47.91;100600.94;2071880;28;20390;-62
2021/04/27 03:25:08;;;;;;;6.20;3.40;;;;;;;19.67;48.04;100606.34;2072008;28;20488;-62
2021/04/27 03:26:10;;;;;;;8.30;4.20;;;;;;;19.67;48.24;100602.81;2071308;28;20100;-62
2021/04/27 03:27:20;;;;;;;7.65;4.20;;;;;;;19.66;48.04;100598.41;2065276;28;20085;-62
2021/04/27 03:28:44;;;;;;;8.60;3.88;;;;;;;19.65;48.29;100605.72;2071661;28;20084;-62
2021/04/27 03:29:45;;;;;;;6.40;3.80;;;;;;;19.64;48.10;100598.63;2072825;28;20076;-62
2021/04/27 03:30:46;;;;;;;9.25;3.60;;;;;;;19.63;48.13;100596.94;2071804;28;20509;-62
2021/04/27 03:31:50;;;;;;;6.82;4.00;;;;;;;19.65;47.88;100591.31;2072023;28;20030;-61
2021/04/27 03:32:51;;;;;;;9.02;4.07;;;;;;;19.63;48.01;100591.50;2071797;28;20044;-62
2021/04/27 03:33:51;;;;;;;6.28;3.63;;;;;;;19.63;48.13;100586.06;2079831;28;20071;-62
2021/04/27 03:34:53;;;;;;;8.55;4.10;;;;;;;19.64;48.11;100587.75;2088155;28;20033;-62
2021/04/27 03:35:54;;;;;;;6.85;4.03;;;;;;;19.64;48.02;100586.91;2080252;28;20033;-62
2021/04/27 03:36:55;;;;;;;9.95;4.10;;;;;;;19.64;48.00;100587.75;2071656;28;20104;-62
2021/04/27 03:37:56;;;;;;;7.15;3.75;;;;;;;19.64;47.98;100586.91;2072845;28;20486;-62
2021/04/27 03:38:57;;;;;;;5.78;3.60;;;;;;;19.65;47.99;100585.88;2071675;28;20476;-62
2021/04/27 03:39:58;;;;;;;8.40;4.18;;;;;;;19.65;48.08;100583.16;2063921;28;20046;-62
2021/04/27 03:40:59;;;;;;;5.80;3.70;;;;;;;19.64;47.98;100586.91;2079304;28;20029;-62
2021/04/27 03:42:05;;;;;;;7.25;4.30;;;;;;;19.65;48.15;100581.28;2079590;28;20088;-62
2021/04/27 03:43:07;;;;;;;6.30;3.75;;;;;;;19.65;48.08;100585.88;2072098;28;20100;-62
2021/04/27 03:44:14;;;;;;;6.55;3.80;;;;;;;19.64;48.14;100578.75;2088101;28;20048;-62
2021/04/27 03:45:20;;;;;;;6.55;3.97;;;;;;;19.63;47.94;100580.63;2079750;28;20098;-61
2021/04/27 03:46:20;;;;;;;7.07;3.70;;;;;;;19.63;48.21;100577.94;2064045;28;20449;-61
2021/04/27 03:47:21;;;;;;;9.85;4.28;;;;;;;19.64;48.48;100576.88;2071706;28;20041;-61
2021/04/27 03:48:23;;;;;;;7.20;3.47;;;;;;;19.66;48.18;100576.69;2074476;28;20128;-61
2021/04/27 03:49:31;;;;;;;9.27;3.80;;;;;;;19.67;48.85;100572.94;2072688;28;20113;-61
2021/04/27 03:50:33;;;;;;;9.55;3.67;;;;;;;19.67;48.85;100571.06;2071624;28;20124;-61
2021/04/27 03:51:54;;;;;;;10.20;3.90;;;;;;;19.67;48.33;100568.34;2061469;28;20054;-61
2021/04/27 03:52:55;;;;;;;6.88;3.60;;;;;;;19.66;49.40;100558.53;2071595;28;20450;-61
2021/04/27 03:53:56;;;;;;;9.13;3.75;;;;;;;19.66;48.33;100561.22;2072107;28;20105;-61
2021/04/27 03:55:06;;;;;;;7.18;3.60;;;;;;;19.66;48.94;100561.22;2072486;28;20034;-61
2021/04/27 03:56:08;;;;;;;9.57;4.18;;;;;;;19.66;48.96;100549.53;2071113;28;20037;-62
2021/04/27 03:57:09;;;;;;;7.07;3.97;;;;;;;19.65;48.50;100548.69;2055832;28;20502;-61
2021/04/27 03:58:21;;;;;;;5.85;3.70;;;;;;;19.65;47.98;100550.56;2057229;28;20351;-61
2021/04/27 03:59:22;;;;;;;9.65;4.03;;;;;;;19.65;48.09;100550.56;2069616;28;20026;-61
2021/04/27 04:00:23;;;;;;;8.10;4.13;;;;;;;19.66;49.01;100547.66;2070789;28;20053;-61
2021/04/27 04:01:24;;;;;;;7.47;3.90;;;;;;;19.66;48.72;100544.94;2066478;28;20397;-61
2021/04/27 04:02:26;;;;;;;6.40;3.70;;;;;;;19.66;48.73;100547.66;2071679;28;20109;-61
2021/04/27 04:03:26;;;;;;;5.30;3.60;;;;;;;19.67;48.64;100545.78;2071482;28;20680;-61
2021/04/27 04:04:27;;;;;;;7.93;4.10;;;;;;;19.65;48.11;100545.97;2072343;28;20030;-61
2021/04/27 04:05:57;;;;;;;8.60;3.93;;;;;;;19.65;48.62;100542.44;2066205;28;20397;-61
2021/04/27 04:07:16;;;;;;;7.82;3.65;;;;;;;19.65;48.66;100545.97;2072509;28;20451;-61
2021/04/27 04:08:45;;;;;;;7.18;3.70;;;;;;;19.65;48.68;100545.97;2054934;28;20566;-61
2021/04/27 04:09:47;;;;;;;7.90;4.00;;;;;;;19.65;48.90;100548.69;2071800;28;20084;-61
2021/04/27 04:10:58;;;;;;;6.57;3.67;;;;;;;19.64;49.29;100540.75;2079696;28;20053;-61
2021/04/27 04:11:58;;;;;;;7.78;3.58;;;;;;;19.66;48.97;100544.09;2079987;28;20424;-61
2021/04/27 04:12:59;;;;;;;9.15;4.30;;;;;;;19.65;49.05;100543.25;2071789;28;20541;-61
2021/04/27 04:14:01;;;;;;;7.10;3.70;;;;;;;19.64;48.98;100540.75;2076994;28;20024;-61
2021/04/27 04:15:11;;;;;;;7.10;4.07;;;;;;;19.65;49.29;100539.72;2071778;28;20041;-61
2021/04/27 04:16:14;;;;;;;7.45;4.18;;;;;;;19.65;49.03;100537.00;2063459;28;20413;-61
2021/04/27 04:17:15;;;;;;;6.72;3.75;;;;;;;19.66;48.82;100527.81;2068838;28;20029;-61
2021/04/27 04:18:17;;;;;;;6.68;3.75;;;;;;;19.65;48.75;100532.41;2064838;28;20485;-61
2021/04/27 04:19:17;;;;;;;6.35;3.72;;;;;;;19.66;49.42;100531.38;2055872;28;20034;-61
2021/04/27 04:20:26;;;;;;;6.25;3.72;;;;;;;19.66;49.05;100531.38;2060490;28;20073;-61
2021/04/27 04:21:47;;;;;;;6.75;3.72;;;;;;;19.65;49.20;100529.69;2071990;28;20054;-61
2021/04/27 04:22:51;;;;;;;7.55;3.55;;;;;;;19.64;48.71;100521.75;2072395;28;20026;-61
2021/04/27 04:23:54;;;;;;;7.75;3.95;;;;;;;19.64;48.94;100517.16;2071794;28;20038;-61
2021/04/27 04:24:55;;;;;;;7.30;4.03;;;;;;;19.67;48.88;100522.19;2071535;28;20040;-61
2021/04/27 04:25:56;;;;;;;6.32;3.88;;;;;;;19.66;49.37;100520.50;2071951;28;20338;-61
2021/04/27 04:26:58;;;;;;;6.80;3.63;;;;;;;19.66;49.14;100514.22;2072376;28;20022;-61
2021/04/27 04:28:15;;;;;;;6.95;3.85;;;;;;;19.65;48.65;100509.84;2071456;28;20034;-61
2021/04/27 04:29:16;;;;;;;6.63;3.88;;;;;;;19.64;48.45;100509.00;2071989;28;20076;-61
2021/04/27 04:30:35;;;;;;;5.85;3.85;;;;;;;19.63;48.36;100510.03;2071434;28;20511;-61
2021/04/27 04:32:05;;;;;;;6.47;3.88;;;;;;;19.64;48.92;100511.72;2042998;29;20384;-61
2021/04/27 04:33:43;;;;;;;7.25;3.70;;;;;;;19.63;49.22;100514.63;2055975;28;20042;-61
2021/04/27 04:35:03;;;;;;;6.47;3.75;;;;;;;19.62;48.75;100512.97;2066965;28;20041;-61
2021/04/27 04:36:22;;;;;;;7.13;3.75;;;;;;;19.62;49.38;100508.38;2072014;28;20073;-61
2021/04/27 04:37:41;;;;;;;6.03;3.78;;;;;;;19.62;49.11;100511.09;2072544;28;20045;-61
2021/04/27 04:39:01;;;;;;;6.70;3.67;;;;;;;19.60;48.72;100507.72;2072185;28;20050;-61
2021/04/27 04:40:20;;;;;;;5.25;3.88;;;;;;;19.59;48.60;100507.94;2071628;28;20038;-61
2021/04/27 04:41:59;;;;;;;7.63;3.72;;;;;;;19.58;48.35;100504.38;2055303;28;20058;-61
2021/04/27 04:43:35;;;;;;;7.20;4.18;;;;;;;19.58;48.81;100496.22;2031433;29;20039;-61
2021/04/27 04:44:54;;;;;;;5.75;3.92;;;;;;;19.58;48.65;100495.41;2031033;29;20159;-61
2021/04/27 04:46:13;;;;;;;6.85;3.97;;;;;;;19.58;48.43;100501.66;2041985;29;20126;-61
2021/04/27 04:47:41;;;;;;;6.00;3.97;;;;;;;19.58;48.96;100501.66;2035552;28;20179;-62
2021/04/27 04:49:00;;;;;;;6.97;4.05;;;;;;;19.58;48.78;100498.09;2066865;28;20516;-61
2021/04/27 04:50:21;;;;;;;;;;;;;;;19.56;48.93;100498.31;2072464;28;20054;-61
2021/04/27 04:51:40;;;;;;;7.63;4.30;;;;;;;19.55;48.72;100499.34;2072260;28;19917;-61
2021/04/27 04:52:45;;;;;;;5.90;3.88;;;;;;;19.55;49.02;100493.09;2087827;28;20036;-61
2021/04/27 04:54:11;;;;;;;5.68;3.47;;;;;;;19.55;48.46;100502.06;2076330;28;20030;-61
2021/04/27 04:55:12;;;;;;;8.25;3.65;;;;;;;19.55;48.56;100488.50;2062876;28;20129;-61
2021/04/27 04:56:32;;;;;;;6.57;3.80;;;;;;;19.56;48.78;100489.34;2067589;28;20034;-61
2021/04/27 04:57:34;;;;;;;9.73;4.13;;;;;;;19.57;48.58;100489.13;2072384;28;20026;-61
2021/04/27 04:58:35;;;;;;;6.93;4.20;;;;;;;19.58;48.46;100490.81;2071446;28;20064;-61
2021/04/27 04:59:39;;;;;;;7.82;4.05;;;;;;;19.58;48.15;100489.97;2071700;28;20512;-62
2021/04/27 05:00:41;;;;;;;6.93;4.03;;;;;;;19.57;48.24;100494.56;2071380;28;20021;-62
2021/04/27 05:02:02;;;;;;;6.85;3.63;;;;;;;19.58;48.40;100490.81;2071552;28;20034;-61
2021/04/27 05:03:21;;;;;;;5.22;3.67;;;;;;;19.58;48.56;100492.69;2072525;28;20034;-62
2021/04/27 05:04:40;;;;;;;6.47;3.78;;;;;;;19.58;48.41;100485.38;2072320;28;20124;-61
2021/04/27 05:05:58;;;;;;;9.32;4.18;;;;;;;19.57;48.58;100488.28;2071801;28;20042;-61
2021/04/27 05:07:20;;;;;;;8.43;4.22;;;;;;;19.57;48.55;100493.72;2072035;28;20132;-61
2021/04/27 05:08:44;;;;;;;8.35;4.30;;;;;;;19.57;48.61;100493.72;2072289;28;20034;-61